Time;durP1;ratioP1;P1;durP2;ratioP2;P2;SDS_P1;SDS_P2;PMS_P1;PMS_P2;Temp;Humidity;BMP_temperature;BMP_pressure;BME280_temperature;BME280_humidity;BME280_pressure;Samples;Min_cycle;Max_cycle;Signal;HPM_P1;HPM_P2
2022/07/05 00:00:19;;;;;;;3.72;3.38;;;;;;;;;;2076096;28;20192;-58
2022/07/05 00:01:19;;;;;;;4.05;3.65;;;;;;;;;;2083121;28;20184;-56
2022/07/05 00:02:19;;;;;;;3.90;3.60;;;;;;;;;;2080322;28;20181;-53
2022/07/05 00:03:20;;;;;;;3.72;3.53;;;;;;;;;;2076658;28;20177;-59
2022/07/05 00:04:20;;;;;;;4.22;3.92;;;;;;;;;;2075510;28;20618;-60
2022/07/05 00:05:20;;;;;;;3.67;3.40;;;;;;;;;;2075867;28;20172;-55
2022/07/05 00:06:21;;;;;;;4.50;3.90;;;;;;;;;;2076054;28;20302;-58
2022/07/05 00:07:21;;;;;;;3.40;3.20;;;;;;;;;;2083595;28;20172;-55
2022/07/05 00:08:22;;;;;;;5.28;3.17;;;;;;;;;;2083425;28;20164;-54
2022/07/05 00:09:22;;;;;;;3.28;2.95;;;;;;;;;;2075357;28;20583;-55
2022/07/05 00:10:22;;;;;;;3.70;3.40;;;;;;;;;;2082681;28;20191;-56
2022/07/05 00:11:23;;;;;;;6.85;3.13;;;;;;;;;;2083137;28;20222;-57
2022/07/05 00:12:28;;;;;;;3.28;2.97;;;;;;;;;;2083984;28;20167;-58
2022/07/05 00:13:28;;;;;;;3.20;2.90;;;;;;;;;;2084052;28;20600;-52
2022/07/05 00:14:29;;;;;;;3.25;2.95;;;;;;;;;;2083288;28;20176;-57
2022/07/05 00:15:29;;;;;;;3.97;3.67;;;;;;;;;;2082454;28;20195;-58
2022/07/05 00:16:29;;;;;;;6.03;3.35;;;;;;;;;;2077050;28;20245;-55
2022/07/05 00:17:30;;;;;;;3.28;2.95;;;;;;;;;;2076632;28;20165;-60
2022/07/05 00:18:30;;;;;;;3.88;3.17;;;;;;;;;;2092654;28;20172;-58
2022/07/05 00:19:30;;;;;;;4.10;3.17;;;;;;;;;;2083846;28;20192;-57
2022/07/05 00:20:31;;;;;;;3.20;3.00;;;;;;;;;;2097058;23;21271;-53
2022/07/05 00:21:31;;;;;;;3.35;3.05;;;;;;;;;;2080643;28;20271;-56
2022/07/05 00:22:32;;;;;;;3.78;2.95;;;;;;;;;;2082477;28;20176;-52
2022/07/05 00:23:32;;;;;;;3.47;3.17;;;;;;;;;;2082821;28;20192;-56
2022/07/05 00:24:33;;;;;;;3.45;3.10;;;;;;;;;;2074022;28;20169;-55
2022/07/05 00:25:33;;;;;;;6.50;3.55;;;;;;;;;;2082216;28;20188;-53
2022/07/05 00:26:33;;;;;;;4.15;3.65;;;;;;;;;;2080966;28;20179;-56
2022/07/05 00:27:34;;;;;;;3.33;3.05;;;;;;;;;;2082779;28;20208;-56
2022/07/05 00:28:34;;;;;;;3.35;3.05;;;;;;;;;;2082196;28;20188;-54
2022/07/05 00:29:34;;;;;;;3.50;3.20;;;;;;;;;;2082418;28;20203;-57
2022/07/05 00:30:35;;;;;;;3.70;3.33;;;;;;;;;;2082511;28;20220;-56
2022/07/05 00:31:35;;;;;;;3.30;3.00;;;;;;;;;;2082779;28;20685;-53
2022/07/05 00:32:36;;;;;;;3.53;3.22;;;;;;;;;;2082561;28;20657;-56
2022/07/05 00:33:37;;;;;;;3.00;2.80;;;;;;;;;;2080223;28;20229;-53
2022/07/05 00:34:37;;;;;;;3.00;2.90;;;;;;;;;;2079685;28;20192;-53
2022/07/05 00:35:38;;;;;;;3.58;3.20;;;;;;;;;;2081466;28;20238;-56
2022/07/05 00:36:38;;;;;;;3.72;3.25;;;;;;;;;;2080963;28;20172;-55
2022/07/05 00:37:39;;;;;;;3.58;3.22;;;;;;;;;;2082127;28;20207;-52
2022/07/05 00:38:39;;;;;;;5.35;3.50;;;;;;;;;;2082376;28;20226;-56
2022/07/05 00:39:39;;;;;;;4.72;2.85;;;;;;;;;;2081543;28;20212;-53
2022/07/05 00:40:41;;;;;;;4.00;3.00;;;;;;;;;;2073324;28;20197;-53
2022/07/05 00:41:42;;;;;;;3.70;3.45;;;;;;;;;;2081292;28;20165;-52
2022/07/05 00:42:42;;;;;;;3.35;3.15;;;;;;;;;;2082657;28;20211;-56
2022/07/05 00:43:59;;;;;;;7.57;3.53;;;;;;;;;;2081575;28;20211;-55
2022/07/05 00:44:59;;;;;;;4.05;3.65;;;;;;;;;;2081735;28;20258;-56
2022/07/05 00:46:00;;;;;;;3.90;3.35;;;;;;;;;;2081468;28;20225;-53
2022/07/05 00:47:01;;;;;;;4.32;3.20;;;;;;;;;;2073611;28;20603;-55
2022/07/05 00:48:01;;;;;;;5.20;3.45;;;;;;;;;;2073399;28;20165;-56
2022/07/05 00:49:02;;;;;;;3.38;3.15;;;;;;;;;;2073992;28;20173;-54
2022/07/05 00:50:03;;;;;;;3.20;2.90;;;;;;;;;;2076236;28;20200;-52
2022/07/05 00:51:03;;;;;;;4.65;4.20;;;;;;;;;;2076248;28;20235;-55
2022/07/05 00:52:04;;;;;;;3.80;3.35;;;;;;;;;;2073478;28;20570;-52
2022/07/05 00:53:05;;;;;;;3.30;3.10;;;;;;;;;;2074413;28;20177;-52
2022/07/05 00:54:07;;;;;;;3.20;2.88;;;;;;;;;;2076336;28;20180;-52
2022/07/05 00:55:07;;;;;;;3.22;3.00;;;;;;;;;;2081121;28;20168;-52
2022/07/05 00:56:08;;;;;;;3.28;3.00;;;;;;;;;;2081554;28;20184;-59
2022/07/05 00:57:08;;;;;;;3.22;2.92;;;;;;;;;;2082285;28;20173;-53
2022/07/05 00:58:09;;;;;;;2.67;2.58;;;;;;;;;;2081361;28;20259;-53
2022/07/05 00:59:09;;;;;;;3.10;2.75;;;;;;;;;;2081428;28;20172;-53
2022/07/05 01:00:10;;;;;;;4.93;3.00;;;;;;;;;;2081230;28;20208;-54
2022/07/05 01:01:10;;;;;;;3.25;2.92;;;;;;;;;;2081459;28;20196;-54
2022/07/05 01:02:10;;;;;;;3.33;3.13;;;;;;;;;;2082111;28;20172;-55
2022/07/05 01:03:12;;;;;;;4.93;3.63;;;;;;;;;;2082279;28;20191;-54
2022/07/05 01:04:13;;;;;;;3.33;3.13;;;;;;;;;;2080297;28;20172;-54
2022/07/05 01:05:13;;;;;;;3.40;3.10;;;;;;;;;;2081943;28;20177;-55
2022/07/05 01:06:14;;;;;;;3.13;2.92;;;;;;;;;;2080395;28;20183;-56
2022/07/05 01:07:14;;;;;;;3.50;3.17;;;;;;;;;;2081342;28;20187;-56
2022/07/05 01:08:15;;;;;;;3.58;3.28;;;;;;;;;;2073077;28;20611;-53
2022/07/05 01:09:16;;;;;;;4.07;3.03;;;;;;;;;;2079000;28;20164;-53
2022/07/05 01:10:17;;;;;;;3.17;2.88;;;;;;;;;;2081221;28;20671;-55
2022/07/05 01:11:17;;;;;;;3.00;2.80;;;;;;;;;;2081259;28;20169;-54
2022/07/05 01:12:18;;;;;;;3.83;2.90;;;;;;;;;;2081473;28;20679;-53
2022/07/05 01:13:18;;;;;;;3.65;2.90;;;;;;;;;;2081356;28;21044;-54
2022/07/05 01:14:20;;;;;;;3.00;2.80;;;;;;;;;;2080538;28;20899;-53
2022/07/05 01:15:21;;;;;;;4.55;3.10;;;;;;;;;;2081790;28;20234;-53
2022/07/05 01:16:22;;;;;;;3.08;2.88;;;;;;;;;;2082021;28;20660;-54
2022/07/05 01:17:23;;;;;;;3.40;3.10;;;;;;;;;;2081977;28;20270;-55
2022/07/05 01:18:24;;;;;;;5.53;3.30;;;;;;;;;;2082571;28;20696;-53
2022/07/05 01:19:24;;;;;;;3.42;3.13;;;;;;;;;;2081561;28;20172;-53
2022/07/05 01:20:25;;;;;;;4.25;3.40;;;;;;;;;;2080331;28;20177;-55
2022/07/05 01:21:26;;;;;;;3.90;3.33;;;;;;;;;;2081317;28;20183;-56
2022/07/05 01:22:27;;;;;;;5.00;2.95;;;;;;;;;;2081628;28;20667;-52
2022/07/05 01:23:28;;;;;;;3.22;3.03;;;;;;;;;;2081076;28;20192;-54
2022/07/05 01:24:28;;;;;;;3.60;3.20;;;;;;;;;;2080641;28;20602;-55
2022/07/05 01:25:29;;;;;;;3.47;3.13;;;;;;;;;;2082014;28;20246;-55
2022/07/05 01:26:30;;;;;;;3.78;3.55;;;;;;;;;;2081942;28;20180;-54
2022/07/05 01:27:31;;;;;;;4.13;3.53;;;;;;;;;;2081318;28;20188;-53
2022/07/05 01:28:31;;;;;;;5.95;3.38;;;;;;;;;;2065134;28;20180;-55
2022/07/05 01:29:31;;;;;;;3.95;3.60;;;;;;;;;;2077362;28;20295;-54
2022/07/05 01:30:33;;;;;;;3.78;3.00;;;;;;;;;;2065073;28;20197;-54
2022/07/05 01:31:40;;;;;;;4.13;3.60;;;;;;;;;;2064921;28;20181;-56
2022/07/05 01:32:40;;;;;;;4.80;3.50;;;;;;;;;;2073986;28;20222;-53
2022/07/05 01:33:41;;;;;;;4.75;3.67;;;;;;;;;;2073041;28;20207;-55
2022/07/05 01:34:42;;;;;;;3.78;3.28;;;;;;;;;;2080463;28;20649;-53
2022/07/05 01:35:42;;;;;;;3.92;3.63;;;;;;;;;;2080923;28;20171;-55
2022/07/05 01:36:42;;;;;;;3.80;3.40;;;;;;;;;;2081401;28;20184;-52
2022/07/05 01:37:43;;;;;;;4.13;3.10;;;;;;;;;;2081017;28;20172;-54
2022/07/05 01:38:43;;;;;;;5.35;3.72;;;;;;;;;;2073291;28;20831;-57
2022/07/05 01:39:44;;;;;;;4.32;3.90;;;;;;;;;;2075170;28;20258;-56
2022/07/05 01:40:44;;;;;;;4.03;3.72;;;;;;;;;;2080806;28;20271;-53
2022/07/05 01:41:46;;;;;;;3.42;3.17;;;;;;;;;;2080900;28;20203;-54
2022/07/05 01:42:47;;;;;;;4.03;3.50;;;;;;;;;;2081317;28;20217;-56
2022/07/05 01:43:47;;;;;;;3.72;3.42;;;;;;;;;;2081796;28;20164;-54
2022/07/05 01:44:48;;;;;;;3.90;3.60;;;;;;;;;;2080877;28;20525;-54
2022/07/05 01:45:48;;;;;;;3.80;3.50;;;;;;;;;;2080985;28;20251;-55
2022/07/05 01:46:51;;;;;;;4.22;3.92;;;;;;;;;;2081224;28;20656;-55
2022/07/05 01:47:51;;;;;;;3.75;3.38;;;;;;;;;;2082287;28;20660;-54
2022/07/05 01:48:55;;;;;;;4.47;3.40;;;;;;;;;;2081708;28;20181;-53
2022/07/05 01:49:58;;;;;;;3.72;3.53;;;;;;;;;;2080940;28;20182;-56
2022/07/05 01:51:05;;;;;;;5.57;3.33;;;;;;;;;;2081039;28;20210;-55
2022/07/05 01:52:09;;;;;;;3.67;3.30;;;;;;;;;;2080907;28;20259;-55
2022/07/05 01:53:23;;;;;;;3.50;3.20;;;;;;;;;;2073571;28;20668;-54
2022/07/05 01:54:23;;;;;;;3.65;3.40;;;;;;;;;;2080046;28;20186;-52
2022/07/05 01:55:24;;;;;;;3.63;3.33;;;;;;;;;;2070887;28;20618;-54
2022/07/05 01:56:24;;;;;;;5.60;3.17;;;;;;;;;;2077718;28;20275;-53
2022/07/05 01:57:25;;;;;;;3.47;3.17;;;;;;;;;;2064748;28;20196;-54
2022/07/05 01:58:25;;;;;;;4.30;3.40;;;;;;;;;;2077962;28;20165;-55
2022/07/05 01:59:27;;;;;;;3.60;3.33;;;;;;;;;;2081654;28;20727;-54
2022/07/05 02:00:28;;;;;;;3.08;2.88;;;;;;;;;;2080301;28;20172;-55
2022/07/05 02:01:35;;;;;;;4.30;3.17;;;;;;;;;;2080690;28;20223;-53
2022/07/05 02:02:39;;;;;;;3.65;3.33;;;;;;;;;;2073614;28;20633;-54
2022/07/05 02:03:40;;;;;;;4.35;3.70;;;;;;;;;;2081096;28;20176;-56
2022/07/05 02:04:41;;;;;;;3.90;3.30;;;;;;;;;;2080579;28;20195;-58
2022/07/05 02:05:44;;;;;;;3.50;3.20;;;;;;;;;;2081091;28;20586;-55
2022/07/05 02:06:49;;;;;;;3.60;3.30;;;;;;;;;;2072932;28;20238;-54
2022/07/05 02:07:49;;;;;;;4.60;3.38;;;;;;;;;;2080614;28;20168;-56
2022/07/05 02:08:50;;;;;;;4.28;3.22;;;;;;;;;;2073119;28;20575;-53
2022/07/05 02:09:50;;;;;;;3.70;3.38;;;;;;;;;;2081320;28;20646;-56
2022/07/05 02:10:51;;;;;;;3.15;2.95;;;;;;;;;;2081540;28;20203;-54
2022/07/05 02:11:51;;;;;;;3.08;2.80;;;;;;;;;;2081285;28;20176;-54
2022/07/05 02:12:52;;;;;;;3.42;3.03;;;;;;;;;;2081262;28;20180;-57
2022/07/05 02:13:52;;;;;;;3.38;3.13;;;;;;;;;;2080796;28;20649;-52
2022/07/05 02:14:53;;;;;;;3.95;3.65;;;;;;;;;;2081173;28;20183;-55
2022/07/05 02:15:54;;;;;;;3.45;3.20;;;;;;;;;;2081180;28;20250;-57
2022/07/05 02:16:55;;;;;;;4.38;3.50;;;;;;;;;;2072822;28;20194;-54
2022/07/05 02:17:55;;;;;;;3.33;3.03;;;;;;;;;;2072621;28;20172;-53
2022/07/05 02:18:56;;;;;;;4.00;3.58;;;;;;;;;;2064560;28;20177;-54
2022/07/05 02:19:57;;;;;;;3.88;3.58;;;;;;;;;;2072545;28;20227;-57
2022/07/05 02:20:58;;;;;;;3.47;3.25;;;;;;;;;;2080678;28;20212;-54
2022/07/05 02:21:58;;;;;;;3.45;3.15;;;;;;;;;;2072443;28;20268;-56
2022/07/05 02:22:59;;;;;;;4.82;3.30;;;;;;;;;;2080800;28;20204;-52
2022/07/05 02:23:59;;;;;;;5.18;4.03;;;;;;;;;;2078272;28;20216;-56
2022/07/05 02:25:04;;;;;;;3.53;3.25;;;;;;;;;;2072696;28;20580;-52
2022/07/05 02:26:04;;;;;;;3.70;3.47;;;;;;;;;;2072897;28;20187;-55
2022/07/05 02:27:05;;;;;;;4.82;3.28;;;;;;;;;;2072614;28;20180;-56
2022/07/05 02:28:05;;;;;;;4.68;3.72;;;;;;;;;;2064521;28;20666;-54
2022/07/05 02:29:07;;;;;;;4.10;3.78;;;;;;;;;;2068513;28;20176;-54
2022/07/05 02:30:09;;;;;;;5.30;3.25;;;;;;;;;;2080650;28;20175;-56
2022/07/05 02:31:15;;;;;;;3.60;3.40;;;;;;;;;;2078837;28;20207;-53
2022/07/05 02:32:15;;;;;;;3.67;3.22;;;;;;;;;;2072710;28;20173;-53
2022/07/05 02:33:16;;;;;;;3.60;3.20;;;;;;;;;;2080976;28;20251;-55
2022/07/05 02:34:16;;;;;;;3.55;3.25;;;;;;;;;;2080430;28;20180;-52
2022/07/05 02:35:18;;;;;;;3.90;3.60;;;;;;;;;;2080916;28;20255;-53
2022/07/05 02:36:18;;;;;;;3.65;3.22;;;;;;;;;;2080736;28;20164;-53
2022/07/05 02:37:19;;;;;;;3.33;3.03;;;;;;;;;;2080787;28;20201;-55
2022/07/05 02:38:19;;;;;;;3.58;3.33;;;;;;;;;;2081026;28;20180;-56
2022/07/05 02:39:19;;;;;;;3.97;3.67;;;;;;;;;;2081363;28;20246;-56
2022/07/05 02:40:22;;;;;;;3.47;3.28;;;;;;;;;;2080535;28;20172;-52
2022/07/05 02:41:25;;;;;;;3.50;3.20;;;;;;;;;;2080830;28;20172;-54
2022/07/05 02:42:26;;;;;;;3.35;3.10;;;;;;;;;;2080657;28;20215;-54
2022/07/05 02:43:27;;;;;;;3.97;3.58;;;;;;;;;;2072743;28;20180;-54
2022/07/05 02:44:27;;;;;;;4.43;3.15;;;;;;;;;;2079607;28;20167;-56
2022/07/05 02:45:27;;;;;;;3.30;3.00;;;;;;;;;;2080676;28;20230;-54
2022/07/05 02:46:32;;;;;;;3.42;3.20;;;;;;;;;;2080679;28;20214;-56
2022/07/05 02:47:35;;;;;;;3.75;3.55;;;;;;;;;;2073064;28;20184;-55
2022/07/05 02:48:37;;;;;;;3.80;3.50;;;;;;;;;;2080690;28;20194;-53
2022/07/05 02:49:39;;;;;;;4.68;3.80;;;;;;;;;;2080636;28;20219;-54
2022/07/05 02:50:40;;;;;;;5.40;3.60;;;;;;;;;;2080493;28;20768;-55
2022/07/05 02:51:42;;;;;;;4.13;3.13;;;;;;;;;;2072635;28;20204;-55
2022/07/05 02:52:44;;;;;;;6.28;3.65;;;;;;;;;;2072761;28;20246;-54
2022/07/05 02:53:46;;;;;;;4.20;3.80;;;;;;;;;;2072451;28;20177;-53
2022/07/05 02:54:47;;;;;;;6.47;4.22;;;;;;;;;;2079668;28;20296;-56
2022/07/05 02:55:49;;;;;;;3.60;3.30;;;;;;;;;;2080881;28;20179;-55
2022/07/05 02:56:49;;;;;;;4.43;3.60;;;;;;;;;;2066074;28;20169;-54
2022/07/05 02:57:50;;;;;;;5.80;3.67;;;;;;;;;;2065986;28;20220;-56
2022/07/05 02:58:52;;;;;;;3.63;3.38;;;;;;;;;;2072603;28;20181;-56
2022/07/05 02:59:55;;;;;;;3.90;3.50;;;;;;;;;;2072760;28;20204;-56
2022/07/05 03:00:56;;;;;;;3.75;3.45;;;;;;;;;;2072710;28;20383;-53
2022/07/05 03:02:00;;;;;;;4.05;3.75;;;;;;;;;;2080877;28;20175;-56
2022/07/05 03:03:00;;;;;;;4.25;3.85;;;;;;;;;;2072343;28;20231;-54
2022/07/05 03:04:02;;;;;;;3.58;3.28;;;;;;;;;;2071927;28;20195;-55
2022/07/05 03:05:05;;;;;;;3.45;3.17;;;;;;;;;;2073050;28;20201;-65
2022/07/05 03:06:06;;;;;;;4.03;3.50;;;;;;;;;;2081053;28;20179;-56
2022/07/05 03:07:08;;;;;;;5.88;2.95;;;;;;;;;;2072944;28;20161;-56
2022/07/05 03:08:08;;;;;;;5.32;3.47;;;;;;;;;;2064644;28;20181;-56
2022/07/05 03:09:10;;;;;;;5.20;3.53;;;;;;;;;;2064765;28;20170;-57
2022/07/05 03:10:11;;;;;;;4.47;3.63;;;;;;;;;;2064560;28;20213;-59
2022/07/05 03:11:12;;;;;;;3.58;3.25;;;;;;;;;;2056503;28;20201;-57
2022/07/05 03:12:12;;;;;;;5.05;4.63;;;;;;;;;;2065014;28;20165;-56
2022/07/05 03:13:13;;;;;;;6.10;5.60;;;;;;;;;;2081050;28;20542;-56
2022/07/05 03:14:14;;;;;;;6.70;5.43;;;;;;;;;;2080106;28;20173;-56
2022/07/05 03:15:16;;;;;;;4.72;4.32;;;;;;;;;;2073099;28;20180;-56
2022/07/05 03:16:17;;;;;;;5.30;3.60;;;;;;;;;;2081043;28;20196;-57
2022/07/05 03:17:17;;;;;;;4.22;3.80;;;;;;;;;;2081826;28;20262;-56
2022/07/05 03:18:18;;;;;;;3.97;3.58;;;;;;;;;;2065337;28;20261;-54
2022/07/05 03:19:18;;;;;;;4.45;3.55;;;;;;;;;;2066308;28;20177;-56
2022/07/05 03:20:19;;;;;;;4.43;3.22;;;;;;;;;;2080732;28;20171;-55
2022/07/05 03:21:20;;;;;;;3.88;3.58;;;;;;;;;;2082728;28;20243;-53
2022/07/05 03:22:20;;;;;;;4.65;3.15;;;;;;;;;;2082213;28;20188;-52
2022/07/05 03:23:21;;;;;;;3.42;3.20;;;;;;;;;;2082181;28;20218;-55
2022/07/05 03:24:27;;;;;;;3.47;3.17;;;;;;;;;;2073879;28;20183;-55
2022/07/05 03:25:27;;;;;;;3.88;3.50;;;;;;;;;;2082195;28;20210;-54
2022/07/05 03:26:27;;;;;;;3.38;2.97;;;;;;;;;;2082219;28;20175;-56
2022/07/05 03:27:28;;;;;;;3.85;3.50;;;;;;;;;;2074213;28;20605;-53
2022/07/05 03:28:29;;;;;;;4.10;3.70;;;;;;;;;;2074096;28;20169;-54
2022/07/05 03:29:32;;;;;;;4.10;3.80;;;;;;;;;;2080962;28;20668;-55
2022/07/05 03:30:32;;;;;;;3.97;3.60;;;;;;;;;;2072976;28;20200;-54
2022/07/05 03:31:33;;;;;;;3.60;3.30;;;;;;;;;;2082421;28;20568;-54
2022/07/05 03:32:36;;;;;;;4.00;3.53;;;;;;;;;;2074474;28;20665;-54
2022/07/05 03:33:39;;;;;;;4.00;3.60;;;;;;;;;;2074211;28;20169;-55
2022/07/05 03:34:42;;;;;;;3.92;3.45;;;;;;;;;;2073083;28;20173;-55
2022/07/05 03:35:44;;;;;;;4.25;3.65;;;;;;;;;;2074010;28;20176;-53
2022/07/05 03:36:46;;;;;;;4.82;3.83;;;;;;;;;;2066007;28;20224;-54
2022/07/05 03:37:50;;;;;;;3.60;3.40;;;;;;;;;;2066213;28;20165;-57
2022/07/05 03:38:53;;;;;;;3.50;3.30;;;;;;;;;;2066492;28;20610;-57
2022/07/05 03:39:54;;;;;;;3.95;3.42;;;;;;;;;;2073045;28;20609;-56
2022/07/05 03:40:55;;;;;;;3.47;3.22;;;;;;;;;;2073861;28;20197;-53
2022/07/05 03:41:58;;;;;;;4.30;3.90;;;;;;;;;;2074164;28;20228;-55
2022/07/05 03:43:01;;;;;;;3.80;3.50;;;;;;;;;;2074184;28;20177;-54
2022/07/05 03:44:05;;;;;;;3.58;3.28;;;;;;;;;;2081151;28;20222;-55
2022/07/05 03:45:07;;;;;;;4.78;3.75;;;;;;;;;;2081969;28;20184;-53
2022/07/05 03:46:09;;;;;;;3.42;3.10;;;;;;;;;;2082077;28;20278;-53
2022/07/05 03:47:13;;;;;;;3.90;3.40;;;;;;;;;;2074221;28;20585;-54
2022/07/05 03:48:13;;;;;;;4.03;3.63;;;;;;;;;;2073646;28;20633;-54
2022/07/05 03:49:13;;;;;;;3.28;3.08;;;;;;;;;;2081638;28;20255;-53
2022/07/05 03:50:14;;;;;;;4.18;3.20;;;;;;;;;;2081849;28;20175;-54
2022/07/05 03:51:16;;;;;;;4.25;3.83;;;;;;;;;;2065985;28;20538;-53
2022/07/05 03:52:16;;;;;;;3.90;3.60;;;;;;;;;;2073919;28;20219;-55
2022/07/05 03:53:17;;;;;;;4.65;4.18;;;;;;;;;;2082200;28;20180;-56
2022/07/05 03:54:18;;;;;;;6.15;4.22;;;;;;;;;;2081014;28;20176;-56
2022/07/05 03:55:18;;;;;;;6.95;3.63;;;;;;;;;;2073664;28;20169;-56
2022/07/05 03:56:22;;;;;;;4.65;4.00;;;;;;;;;;2079970;28;20176;-54
2022/07/05 03:57:24;;;;;;;4.22;3.83;;;;;;;;;;2074053;28;20184;-55
2022/07/05 03:58:25;;;;;;;4.03;3.63;;;;;;;;;;2065985;28;20586;-54
2022/07/05 03:59:26;;;;;;;5.05;3.58;;;;;;;;;;2074586;28;20173;-55
2022/07/05 04:00:26;;;;;;;4.00;3.70;;;;;;;;;;2073634;28;20169;-57
2022/07/05 04:01:34;;;;;;;4.30;3.92;;;;;;;;;;2081965;28;20173;-56
2022/07/05 04:02:35;;;;;;;5.55;3.90;;;;;;;;;;2074017;28;20198;-52
2022/07/05 04:03:36;;;;;;;4.25;3.70;;;;;;;;;;2081938;28;20185;-52
2022/07/05 04:04:36;;;;;;;3.92;3.47;;;;;;;;;;2081252;28;20168;-52
2022/07/05 04:05:36;;;;;;;3.97;3.58;;;;;;;;;;2065815;28;20170;-55
2022/07/05 04:06:38;;;;;;;3.90;3.60;;;;;;;;;;2073667;28;20188;-54
2022/07/05 04:07:50;;;;;;;4.22;3.83;;;;;;;;;;2073680;28;20171;-55
2022/07/05 04:08:53;;;;;;;4.93;3.40;;;;;;;;;;2067977;28;20583;-54
2022/07/05 04:09:53;;;;;;;5.43;3.75;;;;;;;;;;2066323;28;20181;-54
2022/07/05 04:10:54;;;;;;;4.70;3.65;;;;;;;;;;2074604;28;20944;-53
2022/07/05 04:11:56;;;;;;;5.05;3.92;;;;;;;;;;2083605;28;20234;-55
2022/07/05 04:12:57;;;;;;;4.18;3.83;;;;;;;;;;2083324;28;20184;-57
2022/07/05 04:13:59;;;;;;;4.20;3.58;;;;;;;;;;2074741;28;20173;-56
2022/07/05 04:14:59;;;;;;;4.10;3.75;;;;;;;;;;2083489;28;20168;-54
2022/07/05 04:16:00;;;;;;;3.92;3.53;;;;;;;;;;2083535;28;20215;-53
2022/07/05 04:17:00;;;;;;;5.05;4.20;;;;;;;;;;2083068;28;20275;-53
2022/07/05 04:18:01;;;;;;;4.25;3.85;;;;;;;;;;2075342;28;20244;-53
2022/07/05 04:19:04;;;;;;;3.78;3.38;;;;;;;;;;2067434;28;20289;-53
2022/07/05 04:20:07;;;;;;;5.68;3.42;;;;;;;;;;2067161;28;20251;-55
2022/07/05 04:21:08;;;;;;;3.10;2.90;;;;;;;;;;2073987;28;20310;-54
2022/07/05 04:22:09;;;;;;;4.32;3.70;;;;;;;;;;2081859;28;20172;-52
2022/07/05 04:23:09;;;;;;;3.70;3.30;;;;;;;;;;2074445;28;20177;-56
2022/07/05 04:24:10;;;;;;;3.70;3.40;;;;;;;;;;2065897;28;20189;-56
2022/07/05 04:25:17;;;;;;;3.63;3.30;;;;;;;;;;2074905;28;20169;-53
2022/07/05 04:26:19;;;;;;;3.53;3.33;;;;;;;;;;2067186;28;20177;-52
2022/07/05 04:27:20;;;;;;;3.80;3.42;;;;;;;;;;2078655;28;20177;-54
2022/07/05 04:28:21;;;;;;;5.15;3.88;;;;;;;;;;2074791;28;20533;-52
2022/07/05 04:29:23;;;;;;;4.13;3.75;;;;;;;;;;2081088;28;20176;-51
2022/07/05 04:30:24;;;;;;;3.85;3.65;;;;;;;;;;2074142;28;20211;-52
2022/07/05 04:31:26;;;;;;;4.13;3.53;;;;;;;;;;2074718;28;20165;-53
2022/07/05 04:32:29;;;;;;;4.15;3.80;;;;;;;;;;2074577;28;20169;-54
2022/07/05 04:33:30;;;;;;;4.25;3.42;;;;;;;;;;2074273;28;20392;-52
2022/07/05 04:34:32;;;;;;;4.18;3.80;;;;;;;;;;2073501;28;20176;-53
2022/07/05 04:35:32;;;;;;;4.38;4.00;;;;;;;;;;2091143;28;20622;-54
2022/07/05 04:36:33;;;;;;;4.28;3.72;;;;;;;;;;2074763;28;20659;-54
2022/07/05 04:37:34;;;;;;;4.93;3.97;;;;;;;;;;2067305;28;20212;-56
2022/07/05 04:38:35;;;;;;;4.07;3.63;;;;;;;;;;2075794;28;20173;-53
2022/07/05 04:39:37;;;;;;;3.78;3.40;;;;;;;;;;2066580;28;20173;-53
2022/07/05 04:40:42;;;;;;;4.05;3.65;;;;;;;;;;2070274;28;20197;-54
2022/07/05 04:41:42;;;;;;;4.60;3.75;;;;;;;;;;2082656;28;20171;-53
2022/07/05 04:42:45;;;;;;;4.68;4.20;;;;;;;;;;2082451;28;20707;-55
2022/07/05 04:43:47;;;;;;;6.13;3.70;;;;;;;;;;2078422;28;20173;-53
2022/07/05 04:44:48;;;;;;;5.13;3.67;;;;;;;;;;2089500;28;20199;-56
2022/07/05 04:45:49;;;;;;;3.67;3.38;;;;;;;;;;2085783;28;20657;-53
2022/07/05 04:46:50;;;;;;;5.07;3.60;;;;;;;;;;2070668;28;20192;-53
2022/07/05 04:47:51;;;;;;;5.30;3.95;;;;;;;;;;2065591;28;20261;-55
2022/07/05 04:48:55;;;;;;;5.60;4.13;;;;;;;;;;2066329;28;20701;-52
2022/07/05 04:49:57;;;;;;;5.63;5.13;;;;;;;;;;2066388;28;20177;-52
2022/07/05 04:50:57;;;;;;;10.05;4.53;;;;;;;;;;2065376;28;20217;-54
2022/07/05 04:51:58;;;;;;;4.40;4.00;;;;;;;;;;2077876;28;20176;-52
2022/07/05 04:52:59;;;;;;;4.75;3.75;;;;;;;;;;2069714;28;20543;-55
2022/07/05 04:53:59;;;;;;;4.43;3.70;;;;;;;;;;2072653;28;20180;-55
2022/07/05 04:55:00;;;;;;;5.93;4.05;;;;;;;;;;2073374;28;20185;-53
2022/07/05 04:56:01;;;;;;;4.20;3.90;;;;;;;;;;2073619;28;20218;-54
2022/07/05 04:57:01;;;;;;;4.07;3.75;;;;;;;;;;2081502;28;20184;-53
2022/07/05 04:58:02;;;;;;;4.00;3.70;;;;;;;;;;2080267;28;20170;-55
2022/07/05 04:59:02;;;;;;;6.53;3.97;;;;;;;;;;2082150;28;20180;-54
2022/07/05 05:00:02;;;;;;;4.90;4.43;;;;;;;;;;2081370;28;20290;-53
2022/07/05 05:01:03;;;;;;;4.35;3.65;;;;;;;;;;2072859;28;20726;-53
2022/07/05 05:02:03;;;;;;;4.18;3.78;;;;;;;;;;2081608;28;20204;-54
2022/07/05 05:03:04;;;;;;;4.30;3.90;;;;;;;;;;2072555;28;20173;-57
2022/07/05 05:04:04;;;;;;;4.60;4.28;;;;;;;;;;2064093;28;20196;-53
2022/07/05 05:05:05;;;;;;;4.05;3.75;;;;;;;;;;2080756;28;20184;-57
2022/07/05 05:06:05;;;;;;;4.30;3.85;;;;;;;;;;2079301;28;20674;-54
2022/07/05 05:07:06;;;;;;;5.43;3.92;;;;;;;;;;2084881;28;20661;-56
2022/07/05 05:08:06;;;;;;;4.10;3.80;;;;;;;;;;2088616;28;20164;-54
2022/07/05 05:09:06;;;;;;;4.78;3.83;;;;;;;;;;2086923;28;20206;-58
2022/07/05 05:10:07;;;;;;;3.75;3.45;;;;;;;;;;2085932;28;20163;-54
2022/07/05 05:11:08;;;;;;;4.00;3.67;;;;;;;;;;2085529;28;20679;-53
2022/07/05 05:12:08;;;;;;;4.35;3.75;;;;;;;;;;2082506;28;20213;-57
2022/07/05 05:13:08;;;;;;;3.83;3.53;;;;;;;;;;2086707;28;20172;-53
2022/07/05 05:14:09;;;;;;;4.28;3.97;;;;;;;;;;2080292;28;20714;-52
2022/07/05 05:15:09;;;;;;;4.57;3.65;;;;;;;;;;2082088;28;20243;-57
2022/07/05 05:16:10;;;;;;;5.07;3.47;;;;;;;;;;2082091;28;20180;-54
2022/07/05 05:17:10;;;;;;;4.13;3.72;;;;;;;;;;2082244;28;20279;-55
2022/07/05 05:18:11;;;;;;;4.13;3.70;;;;;;;;;;2080026;28;20179;-56
2022/07/05 05:19:11;;;;;;;4.22;3.65;;;;;;;;;;2080701;28;20675;-54
2022/07/05 05:20:12;;;;;;;4.72;3.50;;;;;;;;;;2082566;28;20207;-53
2022/07/05 05:21:13;;;;;;;3.63;3.33;;;;;;;;;;2087537;28;20199;-57
2022/07/05 05:22:13;;;;;;;4.50;3.30;;;;;;;;;;2084492;28;20184;-53
2022/07/05 05:23:13;;;;;;;7.57;3.92;;;;;;;;;;2084731;28;20234;-52
2022/07/05 05:24:14;;;;;;;4.72;3.42;;;;;;;;;;2082280;28;20688;-52
2022/07/05 05:25:14;;;;;;;6.03;3.50;;;;;;;;;;2084000;28;20191;-52
2022/07/05 05:26:15;;;;;;;6.50;3.83;;;;;;;;;;2083882;28;20235;-52
2022/07/05 05:27:15;;;;;;;4.03;3.67;;;;;;;;;;2083977;28;20172;-57
2022/07/05 05:28:15;;;;;;;4.75;3.95;;;;;;;;;;2082892;28;20191;-53
2022/07/05 05:29:16;;;;;;;5.43;4.00;;;;;;;;;;2084260;28;20184;-56
2022/07/05 05:30:17;;;;;;;4.40;3.70;;;;;;;;;;2082597;28;20165;-54
2022/07/05 05:31:18;;;;;;;5.75;3.80;;;;;;;;;;2081520;28;20211;-57
2022/07/05 05:32:19;;;;;;;5.68;4.25;;;;;;;;;;2081981;28;20189;-56
2022/07/05 05:33:19;;;;;;;4.38;3.42;;;;;;;;;;2081655;28;20251;-54
2022/07/05 05:34:19;;;;;;;3.70;3.47;;;;;;;;;;2081257;28;20633;-57
2022/07/05 05:35:21;;;;;;;3.50;3.30;;;;;;;;;;2082234;28;20269;-56
2022/07/05 05:36:22;;;;;;;4.10;3.63;;;;;;;;;;2081934;28;20267;-52
2022/07/05 05:37:22;;;;;;;8.32;3.85;;;;;;;;;;2081296;28;20223;-53
2022/07/05 05:38:23;;;;;;;4.95;3.70;;;;;;;;;;2081270;28;20200;-52
2022/07/05 05:39:23;;;;;;;4.97;3.47;;;;;;;;;;2081749;28;20198;-58
2022/07/05 05:40:25;;;;;;;4.53;3.83;;;;;;;;;;2081819;28;20682;-54
2022/07/05 05:41:25;;;;;;;3.75;3.40;;;;;;;;;;2080321;28;20188;-54
2022/07/05 05:42:25;;;;;;;3.60;3.30;;;;;;;;;;2081345;28;20169;-52
2022/07/05 05:43:26;;;;;;;3.72;3.35;;;;;;;;;;2081632;28;20176;-54
2022/07/05 05:44:26;;;;;;;3.75;3.45;;;;;;;;;;2080845;28;20617;-55
2022/07/05 05:45:26;;;;;;;6.00;3.35;;;;;;;;;;2081131;28;20165;-53
2022/07/05 05:46:27;;;;;;;9.77;3.60;;;;;;;;;;2080934;28;20247;-54
2022/07/05 05:47:27;;;;;;;4.80;3.28;;;;;;;;;;2081704;28;20172;-56
2022/07/05 05:48:27;;;;;;;3.65;3.28;;;;;;;;;;2081003;28;20255;-54
2022/07/05 05:49:28;;;;;;;3.65;3.35;;;;;;;;;;2081592;28;20243;-52
2022/07/05 05:50:30;;;;;;;4.53;3.75;;;;;;;;;;2081797;28;20633;-53
2022/07/05 05:51:31;;;;;;;4.35;3.80;;;;;;;;;;2082021;28;20176;-53
2022/07/05 05:52:31;;;;;;;4.53;3.40;;;;;;;;;;2081647;28;20171;-53
2022/07/05 05:53:32;;;;;;;5.13;3.50;;;;;;;;;;2082177;28;20164;-53
2022/07/05 05:54:32;;;;;;;3.88;3.67;;;;;;;;;;2081243;28;20172;-56
2022/07/05 05:55:32;;;;;;;3.60;3.30;;;;;;;;;;2082383;28;20164;-56
2022/07/05 05:56:33;;;;;;;4.07;3.50;;;;;;;;;;2081701;28;20200;-58
2022/07/05 05:57:34;;;;;;;3.38;3.13;;;;;;;;;;2081046;28;20175;-56
2022/07/05 05:58:34;;;;;;;3.45;3.10;;;;;;;;;;2081089;28;20172;-54
2022/07/05 05:59:34;;;;;;;6.60;3.25;;;;;;;;;;2081063;28;20195;-57
2022/07/05 06:00:35;;;;;;;5.78;3.00;;;;;;;;;;2081756;28;20736;-55
2022/07/05 06:01:35;;;;;;;6.43;3.35;;;;;;;;;;2081620;28;20168;-55
2022/07/05 06:02:35;;;;;;;2.83;2.70;;;;;;;;;;2080997;28;20168;-53
2022/07/05 06:03:36;;;;;;;5.43;2.90;;;;;;;;;;2080994;28;20172;-52
2022/07/05 06:04:36;;;;;;;5.32;2.90;;;;;;;;;;2080787;28;20168;-57
2022/07/05 06:05:36;;;;;;;3.33;2.97;;;;;;;;;;2081586;28;20180;-54
2022/07/05 06:06:37;;;;;;;3.70;2.70;;;;;;;;;;2081636;28;20195;-56